Nancy Peterkin — WDI2121 — position and weather

sailwx.info

Track history (hours):
 
Tides and Currents Weather Stations Pressure Air Temp Water Temp Dewpoint Dewpoint Depression Visibility Wind Speed Wind Dir Waves Ship Positions

Nancy Peterkin

Owner: Kirby Offshore Marine, LLC, Seattle, WA. More information available from US FCC via Universal Licensing System and Coast Guard Vessel Documentation Center.

Last reported at 2018-May-24 18:43 UTC. Time now 2018-May-25 14:46 UTC.
Position N 46°42' W 125°60'.

Length 205 m; draft 5.7 m.

Type: . MMSI: 338134000.

Date/timePositionNaut miles runAvg speedWind from/ knotsBaromVisibWave heightAir tempDewpointWater temp
2018-May-24 18:43N 46°42' W 125°60'11311.7
2018-May-24 09:00N 48°31' W 125°10'612.9
2018-May-24 08:30N 48°31' W 125°00'713.1
2018-May-24 08:00N 48°31' W 124°50'612.2
2018-May-24 07:30N 48°30' W 124°41'612.2
2018-May-24 07:00N 48°28' W 124°33'612.1
2018-May-24 06:30N 48°26' W 124°24'611.8
2018-May-24 06:00N 48°23' W 124°16'611.5
2018-May-24 05:30N 48°21' W 124°08'611.5
2018-May-24 05:00N 48°19' W 124°00'611.2
2018-May-24 04:30N 48°17' W 123°52'5510.2
2018-May-23 23:07N 47°59' W 122°35'214.5
2018-May-23 23:00N 47°57' W 122°33'713.5
2018-May-23 22:30N 47°53' W 122°25'510.7
2018-May-23 22:00N 47°57' W 122°20'5 9.2
2018-May-23 21:30N 47°59' W 122°14'0 0.3
2018-May-23 21:00N 47°59' W 122°13'0 0.0
2018-May-23 20:30N 47°59' W 122°13'0 0.0
2018-May-23 20:00N 47°59' W 122°13'0 0.0
2018-May-23 19:30N 47°59' W 122°13'0 0.0
2018-May-23 18:57N 47°59' W 122°13'0 0.0
2018-May-23 18:30N 47°59' W 122°13'0 0.0
2018-May-23 17:57N 47°59' W 122°13'0 0.0
2018-May-23 17:30N 47°59' W 122°13'0 0.0
2018-May-23 17:00N 47°59' W 122°13'0 0.0
2018-May-23 16:30N 47°59' W 122°13'1 1.4
2018-May-23 16:00N 47°58' W 122°14'4 8.8
2018-May-23 15:30N 47°56' W 122°20'5 9.8
2018-May-23 15:00N 47°52' W 122°24'510.7
2018-May-23 14:30N 47°56' W 122°31'510.7
2018-May-23 14:00N 47°59' W 122°37'610.3
2018-May-23 13:26N 48°05' W 122°40'8 9.2
2018-May-23 12:33N 48°11' W 122°48'3 9.4
2018-May-23 12:16N 48°13' W 122°50'311.0
2018-May-23 12:00N 48°16' W 122°48'612.3
2018-May-23 11:30N 48°22' W 122°46'612.7
2018-May-23 11:00N 48°28' W 122°44'713.4
2018-May-23 10:29N 48°34' W 122°40'511.4
2018-May-23 10:01N 48°38' W 122°34'510.4
2018-May-23 09:29N 48°44' W 122°32'1 0.8
2018-May-23 08:44N 48°43' W 122°31'0 0.0
2018-May-23 08:17N 48°43' W 122°31'0 0.0
2018-May-23 07:59N 48°43' W 122°31'0 0.0
2018-May-23 07:29N 48°43' W 122°31'0 0.0
2018-May-23 06:59N 48°43' W 122°31'0 0.0
2018-May-23 06:29N 48°43' W 122°31'0 0.0
2018-May-23 05:56N 48°43' W 122°31'0 0.0
2018-May-23 05:29N 48°43' W 122°31'0 0.0
2018-May-23 04:59N 48°43' W 122°31'0 0.1
2018-May-23 04:29N 48°43' W 122°31'0 0.1
2018-May-23 03:56N 48°43' W 122°31'0 0.0
2018-May-23 03:29N 48°43' W 122°31'0 0.0
2018-May-23 02:59N 48°43' W 122°31'0 0.0
2018-May-23 02:29N 48°43' W 122°31'0 0.1
2018-May-23 01:59N 48°43' W 122°31'0 0.1
2018-May-23 01:26N 48°43' W 122°31'0 0.0
2018-May-23 00:59N 48°43' W 122°31'0 0.0
2018-May-23 00:29N 48°43' W 122°31'0 0.0
2018-May-22 23:59N 48°43' W 122°31'0 0.0
2018-May-22 23:29N 48°43' W 122°31'0 0.1
2018-May-22 22:59N 48°43' W 122°31'0 0.1
2018-May-22 22:29N 48°43' W 122°31'0 0.0
2018-May-22 21:59N 48°43' W 122°31'0 0.0
2018-May-22 21:05N 48°43' W 122°31'0 0.0
2018-May-22 20:59N 48°43' W 122°31'0 0.1
2018-May-22 20:29N 48°43' W 122°31'0 0.1
2018-May-22 19:56N 48°43' W 122°31'0 0.1
2018-May-22 19:29N 48°43' W 122°31'0 0.1
2018-May-22 18:59N 48°43' W 122°31'0 0.1
2018-May-22 18:29N 48°43' W 122°31'0 0.1
2018-May-22 17:47N 48°43' W 122°31'  
Track history (hours):
 
Tides and Currents Weather Stations Pressure Air Temp Water Temp Dewpoint Dewpoint Depression Visibility Wind Speed Wind Dir Waves Ship Positions

Nancy Peterkin

Owner: Kirby Offshore Marine, LLC, Seattle, WA. More information available from US FCC via Universal Licensing System and Coast Guard Vessel Documentation Center.

Last reported at 2018-May-24 18:43 UTC. Time now 2018-May-25 14:46 UTC.
Position N 46°42' W 125°60'.

Length 205 m; draft 5.7 m.

Type: . MMSI: 338134000.

Date/timePositionNaut miles runAvg speedWind from/ knotsBaromVisibWave heightAir tempDewpointWater temp
2018-May-24 18:43N 46°42' W 125°60'11311.7
2018-May-24 09:00N 48°31' W 125°10'612.9
2018-May-24 08:30N 48°31' W 125°00'713.1
2018-May-24 08:00N 48°31' W 124°50'612.2
2018-May-24 07:30N 48°30' W 124°41'612.2
2018-May-24 07:00N 48°28' W 124°33'612.1
2018-May-24 06:30N 48°26' W 124°24'611.8
2018-May-24 06:00N 48°23' W 124°16'611.5
2018-May-24 05:30N 48°21' W 124°08'611.5
2018-May-24 05:00N 48°19' W 124°00'611.2
2018-May-24 04:30N 48°17' W 123°52'5510.2
2018-May-23 23:07N 47°59' W 122°35'214.5
2018-May-23 23:00N 47°57' W 122°33'713.5
2018-May-23 22:30N 47°53' W 122°25'510.7
2018-May-23 22:00N 47°57' W 122°20'5 9.2
2018-May-23 21:30N 47°59' W 122°14'0 0.3
2018-May-23 21:00N 47°59' W 122°13'0 0.0
2018-May-23 20:30N 47°59' W 122°13'0 0.0
2018-May-23 20:00N 47°59' W 122°13'0 0.0
2018-May-23 19:30N 47°59' W 122°13'0 0.0
2018-May-23 18:57N 47°59' W 122°13'0 0.0
2018-May-23 18:30N 47°59' W 122°13'0 0.0
2018-May-23 17:57N 47°59' W 122°13'0 0.0
2018-May-23 17:30N 47°59' W 122°13'0 0.0
2018-May-23 17:00N 47°59' W 122°13'0 0.0
2018-May-23 16:30N 47°59' W 122°13'1 1.4
2018-May-23 16:00N 47°58' W 122°14'4 8.8
2018-May-23 15:30N 47°56' W 122°20'5 9.8
2018-May-23 15:00N 47°52' W 122°24'510.7
2018-May-23 14:30N 47°56' W 122°31'510.7
2018-May-23 14:00N 47°59' W 122°37'610.3
2018-May-23 13:26N 48°05' W 122°40'8 9.2
2018-May-23 12:33N 48°11' W 122°48'3 9.4
2018-May-23 12:16N 48°13' W 122°50'311.0
2018-May-23 12:00N 48°16' W 122°48'612.3
2018-May-23 11:30N 48°22' W 122°46'612.7
2018-May-23 11:00N 48°28' W 122°44'713.4
2018-May-23 10:29N 48°34' W 122°40'511.4
2018-May-23 10:01N 48°38' W 122°34'510.4
2018-May-23 09:29N 48°44' W 122°32'1 0.8
2018-May-23 08:44N 48°43' W 122°31'0 0.0
2018-May-23 08:17N 48°43' W 122°31'0 0.0
2018-May-23 07:59N 48°43' W 122°31'0 0.0
2018-May-23 07:29N 48°43' W 122°31'0 0.0
2018-May-23 06:59N 48°43' W 122°31'0 0.0
2018-May-23 06:29N 48°43' W 122°31'0 0.0
2018-May-23 05:56N 48°43' W 122°31'0 0.0
2018-May-23 05:29N 48°43' W 122°31'0 0.0
2018-May-23 04:59N 48°43' W 122°31'0 0.1
2018-May-23 04:29N 48°43' W 122°31'0 0.1
2018-May-23 03:56N 48°43' W 122°31'0 0.0
2018-May-23 03:29N 48°43' W 122°31'0 0.0
2018-May-23 02:59N 48°43' W 122°31'0 0.0
2018-May-23 02:29N 48°43' W 122°31'0 0.1
2018-May-23 01:59N 48°43' W 122°31'0 0.1
2018-May-23 01:26N 48°43' W 122°31'0 0.0
2018-May-23 00:59N 48°43' W 122°31'0 0.0
2018-May-23 00:29N 48°43' W 122°31'0 0.0
2018-May-22 23:59N 48°43' W 122°31'0 0.0
2018-May-22 23:29N 48°43' W 122°31'0 0.1
2018-May-22 22:59N 48°43' W 122°31'0 0.1
2018-May-22 22:29N 48°43' W 122°31'0 0.0
2018-May-22 21:59N 48°43' W 122°31'0 0.0
2018-May-22 21:05N 48°43' W 122°31'0 0.0
2018-May-22 20:59N 48°43' W 122°31'0 0.1
2018-May-22 20:29N 48°43' W 122°31'0 0.1
2018-May-22 19:56N 48°43' W 122°31'0 0.1
2018-May-22 19:29N 48°43' W 122°31'0 0.1
2018-May-22 18:59N 48°43' W 122°31'0 0.1
2018-May-22 18:29N 48°43' W 122°31'0 0.1
2018-May-22 17:47N 48°43' W 122°31'  

Dump ship's entire track history